Time;durP1;ratioP1;P1;durP2;ratioP2;P2;SDS_P1;SDS_P2;PMS_P1;PMS_P2;Temp;Humidity;BMP_temperature;BMP_pressure;BME280_temperature;BME280_humidity;BME280_pressure;Samples;Min_cycle;Max_cycle;Signal;HPM_P1;HPM_P2
2022/02/01 00:03:06;;;;;;;2.72;1.35;;;4.50;99.90;;;;;;1905708;75;21511;-75
2022/02/01 00:05:41;;;;;;;2.40;1.30;;;4.60;99.90;;;;;;1905789;75;21137;-74
2022/02/01 00:10:59;;;;;;;2.67;1.27;;;4.50;99.90;;;;;;1905635;75;21059;-75
2022/02/01 00:13:37;;;;;;;1.37;1.00;;;4.50;99.90;;;;;;1903732;75;21443;-75
2022/02/01 00:16:38;;;;;;;2.08;1.00;;;4.60;99.90;;;;;;1903871;74;21574;-75
2022/02/01 00:37:58;;;;;;;2.05;0.95;;;4.50;99.90;;;;;;1905691;75;21091;-75
2022/02/01 00:40:18;;;;;;;7.20;1.00;;;4.50;99.90;;;;;;1903482;75;21095;-74
2022/02/01 00:42:45;;;;;;;3.70;1.35;;;4.50;99.90;;;;;;1880780;75;21404;-74
2022/02/01 00:45:13;;;;;;;10.45;1.17;;;4.50;99.90;;;;;;1905744;75;21031;-74
2022/02/01 00:47:43;;;;;;;3.75;1.07;;;4.50;99.90;;;;;;1905832;75;21035;-75
2022/02/01 00:50:15;;;;;;;3.12;1.15;;;4.50;99.90;;;;;;1914661;75;21202;-74
2022/02/01 00:52:44;;;;;;;1.75;1.02;;;4.50;99.90;;;;;;1892190;75;21497;-74
2022/02/01 00:55:11;;;;;;;1.85;0.78;;;4.60;99.90;;;;;;1901645;73;21249;-75
2022/02/01 00:57:38;;;;;;;3.20;1.17;;;4.50;99.90;;;;;;1884162;73;21173;-74
2022/02/01 01:00:07;;;;;;;1.90;0.88;;;4.50;99.90;;;;;;1899051;74;21070;-74
2022/02/01 01:02:34;;;;;;;4.83;1.27;;;4.50;99.90;;;;;;1911317;74;21051;-74
2022/02/01 01:05:02;;;;;;;3.25;1.00;;;4.50;99.90;;;;;;1909901;74;21047;-74
2022/02/01 01:07:29;;;;;;;2.92;0.90;;;4.50;99.90;;;;;;1898596;73;21151;-74
2022/02/01 01:09:57;;;;;;;2.27;0.75;;;4.50;99.90;;;;;;1903236;73;21149;-74
2022/02/01 01:12:27;;;;;;;2.77;0.62;;;4.40;99.90;;;;;;1894245;74;21486;-75
2022/02/01 01:15:10;;;;;;;4.22;0.90;;;4.30;99.90;;;;;;1914471;74;21111;-75
2022/02/01 01:17:49;;;;;;;2.10;0.85;;;4.20;99.90;;;;;;1903091;73;21259;-75
2022/02/01 01:44:47;;;;;;;5.00;1.37;;;4.00;99.90;;;;;;1891842;73;21571;-74
2022/02/01 01:53:40;;;;;;;4.90;1.65;;;4.10;99.90;;;;;;1911711;74;21606;-74
2022/02/01 01:55:17;;;;;;;6.42;1.77;;;4.10;99.90;;;;;;1875796;73;21078;-74
2022/02/01 01:57:45;;;;;;;4.47;1.70;;;4.00;99.90;;;;;;1900096;73;21082;-74
2022/02/01 02:00:31;;;;;;;7.00;1.95;;;4.00;99.90;;;;;;1898988;73;21074;-74
2022/02/01 02:02:41;;;;;;;5.17;1.63;;;4.00;99.90;;;;;;1880486;73;21525;-75
2022/02/01 02:05:08;;;;;;;5.05;1.50;;;4.10;99.90;;;;;;1883593;76;21037;-74
2022/02/01 02:07:36;;;;;;;6.53;1.47;;;4.10;99.90;;;;;;1905770;74;21135;-74
2022/02/01 02:10:04;;;;;;;6.47;1.57;;;4.20;99.90;;;;;;1858632;75;21155;-74
2022/02/01 02:12:54;;;;;;;4.03;1.27;;;4.20;99.90;;;;;;1896728;73;21222;-74
2022/02/01 02:15:04;;;;;;;16.37;2.12;;;4.10;99.90;;;;;;1900402;74;21176;-73
2022/02/01 02:17:31;;;;;;;9.80;1.60;;;4.20;99.90;;;;;;1895791;73;21497;-73
2022/02/01 02:19:59;;;;;;;9.58;2.20;;;4.20;99.90;;;;;;1895285;73;21078;-74
2022/02/01 02:22:26;;;;;;;4.30;1.55;;;4.10;99.90;;;;;;1912640;73;21051;-75
2022/02/01 02:24:53;;;;;;;9.18;1.60;;;4.20;99.90;;;;;;1904008;74;21070;-75
2022/02/01 02:27:20;;;;;;;9.18;1.40;;;4.20;99.90;;;;;;1911713;75;21083;-73
2022/02/01 02:29:48;;;;;;;9.33;1.50;;;4.10;99.90;;;;;;1900590;73;21733;-75
2022/02/01 02:32:15;;;;;;;4.72;1.57;;;4.10;99.90;;;;;;1883714;75;21061;-73
2022/02/01 02:34:44;;;;;;;4.75;1.67;;;4.10;99.90;;;;;;1897402;73;21067;-77
2022/02/01 02:37:16;;;;;;;5.12;1.60;;;4.10;99.90;;;;;;1906343;75;21073;-74
2022/02/01 02:40:04;;;;;;;3.87;1.47;;;4.10;99.90;;;;;;1888908;75;21505;-74
2022/02/01 02:42:33;;;;;;;6.67;2.00;;;4.10;99.90;;;;;;1907584;73;21056;-73
2022/02/01 02:45:05;;;;;;;5.72;2.45;;;4.10;99.90;;;;;;1906073;73;21232;-74
2022/02/01 02:47:32;;;;;;;4.27;1.50;;;4.10;99.90;;;;;;1891846;73;21172;-76
2022/02/01 02:50:00;;;;;;;8.30;2.00;;;4.00;99.90;;;;;;1901007;75;21077;-74
2022/02/01 02:52:27;;;;;;;7.45;1.80;;;4.00;99.90;;;;;;1883701;73;21073;-73
2022/02/01 02:54:56;;;;;;;6.50;1.70;;;4.00;99.90;;;;;;1887109;75;21047;-74
2022/02/01 02:57:23;;;;;;;5.62;1.85;;;3.90;99.90;;;;;;1890638;74;21354;-73
2022/02/01 02:59:51;;;;;;;10.95;2.47;;;3.90;99.90;;;;;;1913125;73;21441;-73
2022/02/01 03:02:18;;;;;;;9.93;2.47;;;3.90;99.90;;;;;;1916948;75;21466;-75
2022/02/01 03:04:46;;;;;;;10.38;1.52;;;3.90;99.90;;;;;;1889868;74;21135;-74
2022/02/01 03:07:13;;;;;;;9.25;1.77;;;3.80;99.90;;;;;;1892256;73;21083;-73
2022/02/01 03:09:43;;;;;;;14.10;2.35;;;3.90;99.90;;;;;;1911935;74;21179;-75
2022/02/01 03:12:14;;;;;;;9.48;2.58;;;3.90;99.90;;;;;;1913897;74;21193;-73
2022/02/01 03:19:50;;;;;;;21.25;2.55;;;3.90;99.90;;;;;;1883711;76;21438;-73
2022/02/01 03:22:16;;;;;;;12.37;2.55;;;4.00;99.90;;;;;;1883700;73;21136;-74
2022/02/01 03:24:44;;;;;;;15.08;2.52;;;3.90;99.90;;;;;;1906664;74;21156;-73
2022/02/01 03:27:12;;;;;;;6.95;2.20;;;3.90;99.90;;;;;;1913992;74;21051;-73
2022/02/01 03:29:39;;;;;;;20.52;2.95;;;3.90;99.90;;;;;;1896511;75;21507;-75
2022/02/01 03:32:07;;;;;;;13.13;2.40;;;4.00;99.90;;;;;;1903870;75;21521;-75
2022/02/01 03:34:35;;;;;;;15.00;2.90;;;4.00;99.90;;;;;;1910265;74;21075;-73
2022/02/01 03:37:02;;;;;;;9.38;2.20;;;4.00;99.90;;;;;;1883500;75;21466;-74
2022/02/01 03:39:29;;;;;;;12.93;2.40;;;4.00;99.90;;;;;;1910553;75;21144;-73
2022/02/01 03:41:57;;;;;;;14.83;2.45;;;4.00;99.90;;;;;;1918059;75;21494;-75
2022/02/01 03:44:24;;;;;;;17.60;3.52;;;4.00;99.90;;;;;;1890503;73;21556;-75
2022/02/01 03:47:03;;;;;;;9.33;2.30;;;3.90;99.90;;;;;;1896737;73;21090;-74
2022/02/01 03:49:35;;;;;;;18.25;3.17;;;3.90;99.90;;;;;;1889898;73;21071;-74
2022/02/01 03:52:02;;;;;;;16.87;2.62;;;3.90;99.90;;;;;;1901903;74;21175;-74
2022/02/01 03:54:30;;;;;;;12.47;2.95;;;3.90;99.90;;;;;;1913853;74;21140;-74
2022/02/01 03:56:58;;;;;;;23.73;3.10;;;3.90;99.90;;;;;;1887302;73;21077;-76
2022/02/01 03:59:25;;;;;;;20.02;3.62;;;3.80;99.90;;;;;;1891262;75;21063;-75
2022/02/01 04:01:58;;;;;;;29.90;3.27;;;3.80;99.90;;;;;;1888189;73;21556;-74
2022/02/01 04:04:27;;;;;;;23.00;3.17;;;3.80;99.90;;;;;;1913261;74;21221;-73
2022/02/01 04:06:54;;;;;;;11.25;2.58;;;3.90;99.90;;;;;;1912356;74;21056;-75
2022/02/01 04:09:25;;;;;;;12.60;2.72;;;3.90;99.90;;;;;;1897290;73;21186;-75
2022/02/01 04:11:57;;;;;;;13.05;2.65;;;3.90;99.90;;;;;;1912235;73;21171;-73
2022/02/01 04:14:27;;;;;;;14.23;3.00;;;3.90;99.90;;;;;;1905875;73;21501;-74
2022/02/01 04:16:54;;;;;;;12.95;2.60;;;3.90;99.90;;;;;;1913131;74;21173;-73
2022/02/01 04:19:21;;;;;;;16.23;3.08;;;4.00;99.90;;;;;;1911777;74;21087;-75
2022/02/01 04:21:59;;;;;;;10.88;2.60;;;4.00;99.90;;;;;;1913892;74;21156;-75
2022/02/01 04:24:17;;;;;;;12.18;2.62;;;4.00;99.90;;;;;;1901719;74;21172;-75
2022/02/01 04:26:45;;;;;;;7.90;2.60;;;4.00;99.90;;;;;;1915966;74;21050;-73
2022/02/01 04:29:12;;;;;;;13.68;2.87;;;4.10;99.90;;;;;;1913955;75;21253;-73
2022/02/01 04:31:39;;;;;;;9.43;1.98;;;4.10;99.90;;;;;;1911766;74;21078;-76
2022/02/01 04:34:07;;;;;;;11.03;2.20;;;4.10;99.90;;;;;;1910369;73;21486;-75
2022/02/01 04:36:35;;;;;;;19.85;2.65;;;4.10;99.90;;;;;;1901256;73;21160;-73
2022/02/01 04:39:03;;;;;;;12.37;2.60;;;4.10;99.90;;;;;;1901947;73;21094;-74
2022/02/01 04:41:30;;;;;;;9.33;2.40;;;4.10;99.90;;;;;;1905989;75;21074;-73
2022/02/01 04:43:59;;;;;;;22.13;3.00;;;4.00;99.90;;;;;;1912621;75;21160;-73
2022/02/01 04:46:26;;;;;;;11.25;2.45;;;4.10;99.90;;;;;;1903919;74;21082;-74
2022/02/01 04:48:53;;;;;;;15.90;2.50;;;4.10;99.90;;;;;;1883860;76;21038;-75
2022/02/01 04:51:21;;;;;;;12.05;2.52;;;4.10;99.90;;;;;;1913773;75;21159;-74
2022/02/01 04:53:49;;;;;;;12.18;1.87;;;4.00;99.90;;;;;;1900895;73;21091;-74
2022/02/01 04:56:16;;;;;;;15.23;2.17;;;4.00;99.90;;;;;;1911285;74;21051;-73
2022/02/01 04:58:44;;;;;;;12.60;2.22;;;4.00;99.90;;;;;;1890073;73;21473;-76
2022/02/01 05:01:13;;;;;;;9.88;2.22;;;4.00;99.90;;;;;;1891512;75;21288;-75
2022/02/01 05:03:41;;;;;;;12.15;2.80;;;4.00;99.90;;;;;;1895698;74;21110;-74
2022/02/01 05:06:10;;;;;;;16.65;2.62;;;4.00;99.90;;;;;;1903018;74;21082;-75
2022/02/01 05:08:37;;;;;;;15.32;2.55;;;3.90;99.90;;;;;;1912354;73;21088;-73
2022/02/01 05:11:04;;;;;;;18.35;2.45;;;3.90;99.90;;;;;;1915301;75;21144;-75
2022/02/01 05:16:11;;;;;;;13.32;2.62;;;3.90;99.90;;;;;;1886445;74;21075;-74
2022/02/01 05:18:38;;;;;;;20.00;2.55;;;3.90;99.90;;;;;;1890570;73;21108;-73
2022/02/01 05:21:45;;;;;;;15.78;2.60;;;3.90;99.90;;;;;;1914963;74;21121;-74
2022/02/01 05:23:33;;;;;;;17.25;3.05;;;3.90;99.90;;;;;;1887487;74;21082;-73
2022/02/01 05:26:02;;;;;;;10.65;2.83;;;3.90;99.90;;;;;;1915930;75;21487;-75
2022/02/01 05:28:31;;;;;;;15.80;2.62;;;3.90;99.90;;;;;;1915875;75;21119;-73
2022/02/01 05:31:02;;;;;;;18.12;3.33;;;3.90;99.90;;;;;;1907431;74;21059;-73
2022/02/01 05:33:27;;;;;;;12.75;2.80;;;3.90;99.90;;;;;;1883196;76;21119;-74
2022/02/01 05:35:54;;;;;;;17.10;2.80;;;4.00;99.90;;;;;;1896212;73;21051;-76
2022/02/01 05:38:22;;;;;;;7.80;2.30;;;3.90;99.90;;;;;;1913945;74;21074;-78
2022/02/01 05:40:49;;;;;;;12.90;2.17;;;3.90;99.90;;;;;;1916264;74;21459;-76
2022/02/01 05:43:26;;;;;;;13.68;3.05;;;3.80;99.90;;;;;;1895517;73;21074;-77
2022/02/01 05:45:48;;;;;;;14.60;2.73;;;3.80;99.90;;;;;;1882165;73;21078;-78
2022/02/01 05:48:16;;;;;;;15.05;3.12;;;3.80;99.90;;;;;;1892886;73;21155;-76
2022/02/01 05:50:43;;;;;;;15.30;2.90;;;3.80;99.90;;;;;;1904534;75;21059;-75
2022/02/01 05:53:10;;;;;;;19.17;3.05;;;3.80;99.90;;;;;;1915885;73;21043;-77
2022/02/01 05:55:38;;;;;;;15.93;2.62;;;3.70;99.90;;;;;;1913557;73;21148;-77
2022/02/01 05:58:07;;;;;;;14.65;2.67;;;3.80;99.90;;;;;;1903252;73;21051;-78
2022/02/01 06:00:34;;;;;;;9.23;3.00;;;3.70;99.90;;;;;;1905262;73;21078;-77
2022/02/01 06:03:01;;;;;;;9.53;2.87;;;3.70;99.90;;;;;;1901656;74;21069;-77
2022/02/01 06:05:29;;;;;;;14.53;2.37;;;3.70;99.90;;;;;;1894221;73;21486;-76
2022/02/01 06:07:56;;;;;;;9.58;2.05;;;3.70;99.90;;;;;;1883606;73;21062;-77
2022/02/01 06:10:23;;;;;;;11.12;2.72;;;3.70;99.90;;;;;;1904114;75;21132;-76
2022/02/01 06:12:51;;;;;;;11.50;2.75;;;3.70;99.90;;;;;;1884817;74;21042;-75
2022/02/01 06:15:19;;;;;;;15.40;3.22;;;3.70;99.90;;;;;;1883488;76;21439;-77
2022/02/01 06:17:47;;;;;;;8.90;2.92;;;3.70;99.90;;;;;;1883618;76;21038;-76
2022/02/01 06:20:14;;;;;;;11.15;2.83;;;3.70;99.90;;;;;;1886018;74;21493;-75
2022/02/01 06:22:42;;;;;;;20.02;2.33;;;3.70;99.90;;;;;;1901694;74;21599;-75
2022/02/01 06:25:10;;;;;;;14.15;2.60;;;3.70;99.90;;;;;;1912377;74;21467;-75
2022/02/01 06:27:37;;;;;;;13.68;2.33;;;3.70;99.90;;;;;;1899128;73;21085;-75
2022/02/01 06:30:06;;;;;;;11.35;2.22;;;3.70;99.90;;;;;;1883479;76;21127;-75
2022/02/01 06:32:38;;;;;;;16.00;2.95;;;3.60;99.90;;;;;;1888043;73;21074;-77
2022/02/01 06:35:06;;;;;;;18.10;2.58;;;3.60;99.90;;;;;;1905396;74;21464;-76
2022/02/01 06:37:34;;;;;;;14.18;2.62;;;3.60;99.90;;;;;;1896337;73;21082;-75
2022/02/01 06:40:01;;;;;;;13.15;3.02;;;3.60;99.90;;;;;;1906421;73;21075;-80
2022/02/01 06:42:29;;;;;;;11.65;2.55;;;3.60;99.90;;;;;;1900673;73;21097;-78
2022/02/01 06:44:56;;;;;;;13.13;2.90;;;3.60;99.90;;;;;;1901247;73;21069;-78
2022/02/01 06:47:23;;;;;;;14.05;2.12;;;3.50;99.90;;;;;;1883556;73;21074;-78
2022/02/01 06:49:51;;;;;;;16.02;2.52;;;3.50;99.90;;;;;;1908176;74;21067;-79
2022/02/01 06:52:21;;;;;;;14.05;2.62;;;3.50;99.90;;;;;;1886978;73;21139;-78
2022/02/01 06:54:49;;;;;;;13.30;2.75;;;3.60;99.90;;;;;;1887270;75;21135;-77
2022/02/01 06:57:16;;;;;;;24.30;2.95;;;3.60;99.90;;;;;;1913702;73;21078;-76
2022/02/01 06:59:43;;;;;;;14.65;2.60;;;3.60;99.90;;;;;;1917624;73;21112;-76
2022/02/01 07:02:11;;;;;;;21.52;3.67;;;3.60;99.90;;;;;;1914772;75;21181;-75
2022/02/01 07:04:38;;;;;;;9.40;2.65;;;3.60;99.90;;;;;;1891026;75;21061;-77
2022/02/01 07:07:05;;;;;;;15.03;3.22;;;3.60;99.90;;;;;;1893611;73;21175;-78
2022/02/01 07:09:34;;;;;;;20.12;3.20;;;3.50;99.90;;;;;;1902329;73;21129;-73
2022/02/01 07:12:02;;;;;;;11.18;2.20;;;3.60;99.90;;;;;;1902608;73;21144;-75
2022/02/01 07:14:29;;;;;;;11.75;2.20;;;3.60;99.90;;;;;;1905235;74;21064;-74
2022/02/01 07:16:56;;;;;;;13.83;2.52;;;3.60;99.90;;;;;;1910810;73;21125;-74
2022/02/01 07:19:24;;;;;;;9.83;2.40;;;3.60;99.90;;;;;;1885379;73;21057;-74
2022/02/01 07:21:51;;;;;;;11.08;2.42;;;3.50;99.90;;;;;;1899733;73;21078;-75
2022/02/01 07:24:27;;;;;;;12.60;2.65;;;3.60;99.90;;;;;;1896358;73;21075;-74
2022/02/01 07:26:55;;;;;;;12.25;2.27;;;3.60;99.90;;;;;;1904975;73;21228;-75
2022/02/01 07:29:17;;;;;;;15.55;2.70;;;3.60;99.90;;;;;;1900160;73;21577;-74
2022/02/01 07:31:45;;;;;;;10.60;2.45;;;3.60;99.90;;;;;;1910244;74;21074;-74
2022/02/01 07:34:16;;;;;;;10.68;2.47;;;3.60;99.90;;;;;;1909518;74;21109;-74
2022/02/01 07:36:43;;;;;;;10.58;2.42;;;3.50;99.90;;;;;;1889989;74;21073;-75
2022/02/01 07:39:11;;;;;;;16.42;3.02;;;3.60;99.90;;;;;;1897844;73;21168;-74
2022/02/01 07:41:38;;;;;;;12.85;2.45;;;3.60;99.90;;;;;;1895335;73;21086;-74
2022/02/01 07:44:06;;;;;;;10.25;2.08;;;3.60;99.90;;;;;;1906341;73;21479;-74
2022/02/01 07:46:46;;;;;;;13.55;2.72;;;3.60;99.90;;;;;;1884672;73;21168;-77
2022/02/01 07:49:21;;;;;;;;;;;3.60;99.90;;;;;;1898285;73;21149;-77
2022/02/01 07:51:54;;;;;;;8.08;2.00;;;3.60;99.90;;;;;;1894833;73;20325;-77
2022/02/01 07:54:21;;;;;;;9.33;2.12;;;3.60;99.90;;;;;;1923785;73;21487;-76
2022/02/01 07:56:49;;;;;;;10.93;2.72;;;3.50;99.90;;;;;;1905465;74;21078;-77
2022/02/01 07:59:16;;;;;;;10.32;2.45;;;3.50;99.90;;;;;;1918312;75;21111;-77
2022/02/01 08:01:43;;;;;;;8.73;2.22;;;3.60;99.90;;;;;;1883437;75;21082;-77
2022/02/01 08:04:11;;;;;;;7.70;2.40;;;3.70;99.90;;;;;;1918310;73;21067;-77
2022/02/01 08:06:38;;;;;;;9.88;2.17;;;3.70;99.90;;;;;;1910895;73;21163;-78
2022/02/01 08:09:14;;;;;;;17.80;2.58;;;3.80;99.90;;;;;;1915768;75;21170;-76
2022/02/01 08:11:34;;;;;;;7.90;2.22;;;3.80;99.90;;;;;;1886336;73;21160;-76
2022/02/01 08:14:47;;;;;;;10.82;2.40;;;3.70;99.90;;;;;;1886778;75;21137;-75
2022/02/01 08:16:43;;;;;;;13.18;2.35;;;3.80;99.90;;;;;;1893922;73;21081;-76
2022/02/01 08:19:09;;;;;;;19.82;2.65;;;3.80;99.90;;;;;;1891454;73;21058;-77
2022/02/01 08:21:32;;;;;;;7.30;1.95;;;3.80;99.90;;;;;;1909986;73;21079;-77
2022/02/01 08:23:59;;;;;;;13.13;2.62;;;3.80;99.90;;;;;;1911525;74;21071;-77
2022/02/01 08:26:27;;;;;;;17.35;3.20;;;3.80;99.90;;;;;;1903776;74;21067;-77
2022/02/01 08:28:54;;;;;;;14.38;3.08;;;3.80;99.90;;;;;;1899152;73;21184;-77
2022/02/01 08:31:22;;;;;;;11.83;2.83;;;3.90;99.90;;;;;;1906233;74;21078;-78
2022/02/01 08:33:49;;;;;;;9.63;2.05;;;3.80;99.90;;;;;;1901139;73;21229;-76
2022/02/01 08:36:17;;;;;;;14.55;2.65;;;3.90;99.90;;;;;;1883602;73;21151;-78
2022/02/01 08:38:46;;;;;;;10.25;2.10;;;4.00;99.90;;;;;;1886618;73;21155;-77
2022/02/01 08:41:16;;;;;;;15.05;2.52;;;4.10;99.90;;;;;;1900984;73;21154;-79
2022/02/01 08:43:45;;;;;;;12.37;2.02;;;4.20;99.90;;;;;;1907220;73;21591;-77
2022/02/01 08:46:15;;;;;;;27.07;2.70;;;4.20;99.90;;;;;;1900452;74;21480;-77
2022/02/01 08:48:42;;;;;;;16.27;2.42;;;4.20;99.90;;;;;;1910192;73;21082;-79
2022/02/01 08:51:11;;;;;;;7.40;2.58;;;4.20;99.90;;;;;;1909669;73;21152;-79
2022/02/01 08:53:55;;;;;;;12.98;4.40;;;4.10;99.90;;;;;;1912148;73;21499;-79
2022/02/01 08:59:01;;;;;;;11.43;2.27;;;4.10;99.90;;;;;;1904708;74;21148;-79
2022/02/01 09:01:29;;;;;;;11.63;2.80;;;4.00;99.90;;;;;;1883746;73;21058;-78
2022/02/01 09:03:56;;;;;;;12.23;2.50;;;4.10;99.90;;;;;;1887350;73;21090;-78
2022/02/01 09:06:24;;;;;;;7.78;1.98;;;4.00;99.90;;;;;;1891464;73;21063;-78
2022/02/01 09:08:52;;;;;;;14.63;2.20;;;4.10;99.90;;;;;;1911736;74;21058;-78
2022/02/01 09:11:19;;;;;;;13.38;2.22;;;4.10;99.90;;;;;;1904317;74;21059;-77
2022/02/01 09:13:49;;;;;;;8.40;2.10;;;4.10;99.90;;;;;;1892112;73;21537;-77
2022/02/01 09:16:16;;;;;;;8.48;1.77;;;4.20;99.90;;;;;;1896945;73;21107;-78
2022/02/01 09:18:43;;;;;;;9.28;2.20;;;4.20;99.90;;;;;;1907462;73;21191;-76
2022/02/01 09:21:12;;;;;;;8.95;2.20;;;4.20;99.90;;;;;;1897111;74;21081;-78
2022/02/01 09:23:39;;;;;;;10.05;1.92;;;4.30;99.90;;;;;;1897887;73;21501;-78
2022/02/01 09:26:07;;;;;;;7.30;1.95;;;4.30;99.90;;;;;;1888240;73;21573;-77
2022/02/01 09:28:34;;;;;;;10.55;1.82;;;4.30;99.90;;;;;;1906429;73;21159;-77
2022/02/01 09:31:01;;;;;;;8.98;2.40;;;4.40;99.90;;;;;;1916859;73;21066;-77
2022/02/01 09:33:30;;;;;;;7.03;2.12;;;4.40;99.90;;;;;;1890303;74;21073;-76
2022/02/01 09:35:58;;;;;;;12.73;2.15;;;4.30;99.90;;;;;;1884578;76;21119;-76
2022/02/01 09:38:30;;;;;;;10.63;2.27;;;4.40;99.90;;;;;;1900936;73;21062;-78
2022/02/01 09:40:56;;;;;;;7.85;1.92;;;4.50;99.90;;;;;;1899981;74;21144;-79
2022/02/01 09:43:24;;;;;;;8.15;1.90;;;4.60;99.90;;;;;;1885721;73;21504;-79
2022/02/01 09:45:57;;;;;;;7.85;1.62;;;4.70;99.90;;;;;;1864814;73;21441;-77
2022/02/01 09:48:27;;;;;;;10.00;1.70;;;4.80;99.90;;;;;;1897187;75;21132;-78
2022/02/01 09:50:54;;;;;;;8.80;1.55;;;4.70;99.90;;;;;;1904837;74;21459;-77
2022/02/01 09:53:22;;;;;;;12.88;2.20;;;4.70;99.90;;;;;;1904618;73;21075;-76
2022/02/01 09:55:51;;;;;;;7.83;1.92;;;4.80;99.90;;;;;;1905349;73;21191;-78
2022/02/01 09:58:21;;;;;;;6.97;1.72;;;4.90;99.90;;;;;;1867004;74;21083;-76
2022/02/01 10:00:53;;;;;;;3.47;1.42;;;4.90;99.90;;;;;;1879504;75;21043;-78
2022/02/01 10:03:21;;;;;;;7.70;1.72;;;4.90;99.90;;;;;;1874075;74;21254;-79
2022/02/01 10:06:08;;;;;;;4.85;1.65;;;5.00;99.90;;;;;;1872311;75;21470;-78
2022/02/01 10:08:35;;;;;;;5.62;1.10;;;5.20;99.90;;;;;;1881180;74;21506;-77
2022/02/01 10:11:03;;;;;;;4.92;1.50;;;5.20;99.90;;;;;;1847776;75;21144;-76
2022/02/01 10:13:35;;;;;;;11.65;1.50;;;5.00;99.90;;;;;;1888306;74;21151;-78
2022/02/01 10:16:12;;;;;;;11.17;1.90;;;4.90;99.90;;;;;;1874679;75;21070;-78
2022/02/01 10:18:35;;;;;;;6.37;1.45;;;4.80;99.90;;;;;;1820757;76;21075;-77
2022/02/01 10:21:13;;;;;;;9.33;1.87;;;4.90;99.90;;;;;;1876001;75;21569;-78
2022/02/01 10:23:42;;;;;;;6.00;1.90;;;5.10;99.90;;;;;;1880961;75;21536;-76
2022/02/01 10:26:20;;;;;;;4.67;1.35;;;5.00;99.90;;;;;;1875794;73;21047;-77
2022/02/01 10:29:01;;;;;;;7.62;1.70;;;4.90;99.90;;;;;;1894780;74;21115;-77
2022/02/01 10:31:25;;;;;;;11.57;1.42;;;4.80;99.90;;;;;;1882967;73;21180;-77
2022/02/01 10:34:25;;;;;;;7.08;1.50;;;4.80;99.90;;;;;;1881263;75;21472;-76
2022/02/01 10:36:39;;;;;;;8.38;1.92;;;4.90;99.90;;;;;;1874842;75;21432;-77
2022/02/01 10:39:18;;;;;;;5.28;1.40;;;5.00;99.90;;;;;;1895184;75;21086;-76
2022/02/01 10:42:00;;;;;;;9.48;1.35;;;5.30;99.90;;;;;;1910960;74;21155;-77
2022/02/01 10:44:49;;;;;;;4.75;1.30;;;5.30;99.90;;;;;;1918329;73;21074;-77
2022/02/01 10:47:38;;;;;;;9.63;1.30;;;5.30;99.90;;;;;;1902366;73;21066;-77
2022/02/01 10:50:18;;;;;;;4.62;1.17;;;5.40;99.90;;;;;;1887870;75;21167;-77
2022/02/01 10:52:48;;;;;;;4.85;1.25;;;5.30;99.90;;;;;;1890852;73;21487;-78
2022/02/01 10:55:17;;;;;;;4.97;1.30;;;5.00;99.90;;;;;;1886291;74;21064;-77
2022/02/01 10:57:44;;;;;;;3.33;1.55;;;4.90;99.90;;;;;;1874962;75;21106;-77
2022/02/01 11:00:14;;;;;;;5.12;1.17;;;4.80;99.90;;;;;;1878708;74;21474;-76
2022/02/01 11:02:43;;;;;;;5.50;1.22;;;4.80;99.90;;;;;;1839031;76;21086;-77
2022/02/01 11:05:18;;;;;;;18.65;1.37;;;4.80;99.90;;;;;;1873751;76;21085;-76
2022/02/01 11:07:50;;;;;;;5.47;1.52;;;4.70;99.90;;;;;;1850378;75;21557;-76
2022/02/01 11:10:17;;;;;;;3.15;0.88;;;4.70;99.90;;;;;;1872057;75;21459;-77
2022/02/01 11:12:45;;;;;;;3.67;1.20;;;4.80;99.90;;;;;;1873240;75;21047;-77
2022/02/01 11:15:23;;;;;;;7.30;1.40;;;4.70;99.90;;;;;;1875809;75;21138;-77
2022/02/01 11:17:52;;;;;;;6.72;1.60;;;4.80;99.90;;;;;;1887358;75;21152;-77
2022/02/01 11:20:33;;;;;;;4.50;1.40;;;4.80;99.90;;;;;;1867562;75;21077;-76
2022/02/01 11:23:11;;;;;;;2.92;0.98;;;5.00;99.90;;;;;;1903492;73;21052;-76
2022/02/01 11:25:51;;;;;;;6.15;1.37;;;5.10;99.90;;;;;;1905921;73;21054;-78
2022/02/01 11:29:11;;;;;;;4.22;1.17;;;5.10;99.90;;;;;;1862194;75;21116;-77
2022/02/01 11:31:02;;;;;;;4.65;1.15;;;5.10;99.90;;;;;;1893258;73;21132;-77
2022/02/01 11:33:37;;;;;;;6.15;1.27;;;4.90;99.90;;;;;;1904692;74;21077;-78
2022/02/01 11:36:06;;;;;;;4.62;1.37;;;4.80;99.90;;;;;;1897610;74;21505;-78
2022/02/01 11:38:33;;;;;;;7.22;1.55;;;4.70;99.90;;;;;;1861436;74;21155;-77
2022/02/01 11:41:04;;;;;;;5.15;1.12;;;4.80;99.90;;;;;;1896903;73;21181;-77
2022/02/01 11:43:31;;;;;;;5.70;1.60;;;4.90;99.90;;;;;;1916237;75;21577;-77
2022/02/01 11:46:01;;;;;;;10.43;1.90;;;5.00;99.90;;;;;;1909954;73;21115;-77
2022/02/01 11:48:32;;;;;;;4.72;1.67;;;5.20;99.90;;;;;;1886250;73;21054;-78
2022/02/01 11:51:05;;;;;;;3.90;1.30;;;5.50;99.90;;;;;;1913849;74;21094;-77
2022/02/01 11:53:41;;;;;;;5.17;1.35;;;5.30;99.90;;;;;;1903797;74;21144;-76
2022/02/01 11:56:10;;;;;;;11.25;1.92;;;5.20;99.90;;;;;;1910365;73;21071;-77
2022/02/01 11:58:41;;;;;;;8.23;2.20;;;5.20;99.90;;;;;;1885194;73;21457;-75
2022/02/01 12:01:31;;;;;;;10.82;1.52;;;5.10;99.90;;;;;;1905914;73;21119;-75
2022/02/01 12:04:13;;;;;;;5.78;1.37;;;4.90;99.90;;;;;;1876216;73;21156;-74
2022/02/01 12:06:47;;;;;;;9.85;1.55;;;4.70;99.90;;;;;;1908082;75;21053;-76
2022/02/01 12:09:21;;;;;;;8.70;1.98;;;4.60;99.90;;;;;;1913985;73;21146;-75
2022/02/01 12:11:55;;;;;;;6.55;1.52;;;4.70;99.90;;;;;;1902090;74;21139;-75
2022/02/01 12:14:25;;;;;;;6.67;1.80;;;4.80;99.90;;;;;;1899916;73;21518;-75
2022/02/01 12:16:54;;;;;;;5.78;1.40;;;4.80;99.90;;;;;;1895945;73;21175;-75
2022/02/01 12:19:42;;;;;;;10.90;1.70;;;4.70;99.90;;;;;;1874372;73;21077;-77
2022/02/01 12:22:32;;;;;;;18.37;1.72;;;4.70;99.90;;;;;;1891613;73;21505;-77
2022/02/01 12:25:07;;;;;;;8.23;1.12;;;4.70;99.90;;;;;;1910964;74;21136;-74
2022/02/01 12:27:39;;;;;;;5.83;1.80;;;4.70;99.90;;;;;;1905818;75;21224;-74
2022/02/01 12:30:08;;;;;;;6.05;1.35;;;4.80;99.90;;;;;;1907794;73;21137;-75
2022/02/01 12:32:35;;;;;;;3.90;0.90;;;4.60;99.90;;;;;;1905754;75;21051;-73
2022/02/01 12:35:04;;;;;;;2.40;1.12;;;4.50;99.90;;;;;;1905693;75;21074;-76
2022/02/01 12:37:33;;;;;;;5.53;1.37;;;4.30;99.90;;;;;;1905758;75;21038;-73
2022/02/01 12:40:12;;;;;;;7.97;1.45;;;4.30;99.90;;;;;;1905674;73;21081;-76
2022/02/01 12:42:43;;;;;;;2.95;1.10;;;4.20;99.90;;;;;;1903677;75;21165;-73
2022/02/01 12:48:00;;;;;;;4.20;1.70;;;4.30;99.90;;;;;;1905606;75;21076;-74
2022/02/01 12:50:27;;;;;;;3.22;1.37;;;4.30;99.90;;;;;;1905891;75;21411;-75
2022/02/01 12:52:58;;;;;;;5.80;1.50;;;4.30;99.90;;;;;;1905698;75;21063;-77
2022/02/01 12:55:25;;;;;;;5.42;1.07;;;4.40;99.90;;;;;;1905740;75;21031;-76
2022/02/01 12:57:54;;;;;;;8.63;1.50;;;4.50;99.90;;;;;;1905665;75;21074;-76
2022/02/01 13:00:25;;;;;;;3.77;1.20;;;4.50;99.90;;;;;;1905792;75;21116;-76
2022/02/01 13:02:59;;;;;;;5.10;1.30;;;4.40;99.90;;;;;;1905796;75;21525;-74
2022/02/01 13:05:26;;;;;;;3.00;1.10;;;4.30;99.90;;;;;;1905779;75;21140;-75
2022/02/01 13:08:24;;;;;;;3.60;1.40;;;4.40;99.90;;;;;;1905676;75;21082;-75
2022/02/01 13:21:21;;;;;;;6.95;1.42;;;4.40;99.90;;;;;;1905579;75;21127;-75
2022/02/01 13:23:52;;;;;;;4.05;1.12;;;4.50;99.90;;;;;;1905569;73;21051;-76
2022/02/01 13:26:26;;;;;;;2.75;1.00;;;4.50;99.90;;;;;;1881447;75;21096;-75
2022/02/01 13:29:04;;;;;;;5.72;1.00;;;4.50;99.90;;;;;;1905092;75;21105;-76
2022/02/01 13:31:33;;;;;;;2.25;1.22;;;4.60;99.90;;;;;;1905836;75;21427;-78
2022/02/01 13:34:09;;;;;;;6.10;1.40;;;4.40;99.90;;;;;;1905556;75;21023;-75
2022/02/01 13:36:33;;;;;;;2.55;1.37;;;4.30;99.90;;;;;;1902902;75;21142;-74
2022/02/01 13:39:03;;;;;;;2.90;1.10;;;4.30;99.90;;;;;;1882106;74;21234;-76
2022/02/01 13:41:30;;;;;;;;;;;4.30;99.90;;;;;;1908580;75;21116;-77
2022/02/01 13:44:00;;;;;;;4.12;1.30;;;4.20;99.90;;;;;;1905656;75;20199;-78
2022/02/01 13:46:30;;;;;;;5.83;1.25;;;4.10;99.90;;;;;;1905813;75;21075;-77
2022/02/01 13:49:09;;;;;;;3.40;1.30;;;4.20;99.90;;;;;;1905810;75;21055;-76
2022/02/01 13:51:50;;;;;;;4.60;1.12;;;4.10;99.90;;;;;;1905535;75;21116;-79
2022/02/01 13:54:18;;;;;;;5.60;1.67;;;4.10;99.90;;;;;;1905636;75;21436;-77
2022/02/01 13:56:47;;;;;;;2.87;1.12;;;4.20;99.90;;;;;;1905726;75;21085;-78
2022/02/01 13:59:22;;;;;;;5.20;1.40;;;4.10;99.90;;;;;;1905947;75;21331;-77
2022/02/01 14:01:49;;;;;;;3.22;1.20;;;4.10;99.90;;;;;;1905606;73;21103;-78
2022/02/01 14:04:24;;;;;;;4.05;1.30;;;4.10;99.90;;;;;;1905601;75;21116;-80
2022/02/01 14:06:59;;;;;;;5.67;1.35;;;4.10;99.90;;;;;;1905046;74;21169;-77
2022/02/01 14:12:14;;;;;;;4.45;1.10;;;4.10;99.90;;;;;;1905642;75;21160;-76
2022/02/01 14:33:29;;;;;;;7.55;1.40;;;3.90;99.90;;;;;;1884232;73;21065;-74
2022/02/01 14:35:51;;;;;;;2.60;1.10;;;4.00;99.90;;;;;;1906090;73;21086;-76
2022/02/01 14:44:01;;;;;;;2.58;1.12;;;4.10;99.90;;;;;;1913491;73;21104;-75
2022/02/01 14:46:16;;;;;;;4.17;1.42;;;4.10;99.90;;;;;;1902253;74;21210;-75
2022/02/01 14:48:44;;;;;;;3.70;1.20;;;4.00;99.90;;;;;;1915287;74;21051;-75
2022/02/01 14:51:11;;;;;;;2.00;1.00;;;4.00;99.90;;;;;;1908709;73;21465;-76